sensor_id;sensor_type;location;lat;lon;timestamp;temperature;humidity
11991;DHT22;6055;52.522;13.446;2023-04-24T00:00:13;13.70;99.90
11991;DHT22;6055;52.522;13.446;2023-04-24T00:03:42;13.70;99.90
11991;DHT22;6055;52.522;13.446;2023-04-24T00:09:18;13.70;99.90
11991;DHT22;6055;52.522;13.446;2023-04-24T00:15:22;13.70;99.90
11991;DHT22;6055;52.522;13.446;2023-04-24T00:24:52;13.60;99.90
11991;DHT22;6055;52.522;13.446;2023-04-24T00:27:29;13.60;99.90
11991;DHT22;6055;52.522;13.446;2023-04-24T00:30:22;13.60;99.90
11991;DHT22;6055;52.522;13.446;2023-04-24T00:33:33;13.60;99.90
11991;DHT22;6055;52.522;13.446;2023-04-24T00:37:04;13.60;99.90
11991;DHT22;6055;52.522;13.446;2023-04-24T00:39:52;13.50;99.90
11991;DHT22;6055;52.522;13.446;2023-04-24T00:52:30;13.40;99.90
11991;DHT22;6055;52.522;13.446;2023-04-24T00:55:20;13.40;99.90
11991;DHT22;6055;52.522;13.446;2023-04-24T01:01:54;13.40;99.90
11991;DHT22;6055;52.522;13.446;2023-04-24T01:04:53;13.40;99.90
11991;DHT22;6055;52.522;13.446;2023-04-24T01:10:51;13.30;99.90
11991;DHT22;6055;52.522;13.446;2023-04-24T01:13:44;13.30;99.90
11991;DHT22;6055;52.522;13.446;2023-04-24T01:16:16;13.30;99.90
11991;DHT22;6055;52.522;13.446;2023-04-24T01:21:47;13.30;99.90
11991;DHT22;6055;52.522;13.446;2023-04-24T01:24:44;13.20;99.90
11991;DHT22;6055;52.522;13.446;2023-04-24T01:34:10;13.10;99.90
11991;DHT22;6055;52.522;13.446;2023-04-24T01:43:49;13.10;99.90
11991;DHT22;6055;52.522;13.446;2023-04-24T01:55:57;13.10;99.90
11991;DHT22;6055;52.522;13.446;2023-04-24T01:59:22;13.10;99.90
11991;DHT22;6055;52.522;13.446;2023-04-24T02:12:24;13.00;99.90
11991;DHT22;6055;52.522;13.446;2023-04-24T02:18:57;13.00;99.90
11991;DHT22;6055;52.522;13.446;2023-04-24T02:36:32;13.00;99.90
11991;DHT22;6055;52.522;13.446;2023-04-24T02:39:47;13.10;99.90
11991;DHT22;6055;52.522;13.446;2023-04-24T03:04:13;13.00;99.90
11991;DHT22;6055;52.522;13.446;2023-04-24T03:10:25;13.10;99.90
11991;DHT22;6055;52.522;13.446;2023-04-24T03:41:01;13.30;99.90
11991;DHT22;6055;52.522;13.446;2023-04-24T03:51:05;13.30;99.90
11991;DHT22;6055;52.522;13.446;2023-04-24T03:54:09;13.30;99.90
11991;DHT22;6055;52.522;13.446;2023-04-24T04:03:29;13.30;99.90
11991;DHT22;6055;52.522;13.446;2023-04-24T04:06:22;13.40;99.90
11991;DHT22;6055;52.522;13.446;2023-04-24T04:09:35;13.40;99.90
11991;DHT22;6055;52.522;13.446;2023-04-24T04:12:33;13.40;99.90
11991;DHT22;6055;52.522;13.446;2023-04-24T04:21:29;13.40;99.90
11991;DHT22;6055;52.522;13.446;2023-04-24T04:31:06;13.40;99.90
11991;DHT22;6055;52.522;13.446;2023-04-24T04:36:59;13.40;99.90
11991;DHT22;6055;52.522;13.446;2023-04-24T04:43:12;13.50;99.90
11991;DHT22;6055;52.522;13.446;2023-04-24T04:49:42;13.50;99.90
11991;DHT22;6055;52.522;13.446;2023-04-24T04:52:52;13.50;99.90
11991;DHT22;6055;52.522;13.446;2023-04-24T04:56:20;13.60;99.90
11991;DHT22;6055;52.522;13.446;2023-04-24T04:59:55;13.60;99.90
11991;DHT22;6055;52.522;13.446;2023-04-24T05:25:50;13.60;99.90
11991;DHT22;6055;52.522;13.446;2023-04-24T05:36:48;13.50;99.90
11991;DHT22;6055;52.522;13.446;2023-04-24T06:02:07;13.40;99.90
11991;DHT22;6055;52.522;13.446;2023-04-24T06:05:17;13.40;99.90
11991;DHT22;6055;52.522;13.446;2023-04-24T06:11:59;13.60;99.90
11991;DHT22;6055;52.522;13.446;2023-04-24T06:14:30;13.60;99.90
11991;DHT22;6055;52.522;13.446;2023-04-24T06:16:56;13.70;99.90
11991;DHT22;6055;52.522;13.446;2023-04-24T06:19:27;13.70;99.90
11991;DHT22;6055;52.522;13.446;2023-04-24T06:21:52;13.70;99.90
11991;DHT22;6055;52.522;13.446;2023-04-24T06:24:18;13.80;99.90
11991;DHT22;6055;52.522;13.446;2023-04-24T06:26:59;13.80;99.90
11991;DHT22;6055;52.522;13.446;2023-04-24T06:40:30;13.80;99.90
11991;DHT22;6055;52.522;13.446;2023-04-24T06:47:11;13.90;99.90
11991;DHT22;6055;52.522;13.446;2023-04-24T06:50:05;14.10;99.90
11991;DHT22;6055;52.522;13.446;2023-04-24T06:52:57;14.20;99.90
11991;DHT22;6055;52.522;13.446;2023-04-24T06:55:31;14.20;99.90
11991;DHT22;6055;52.522;13.446;2023-04-24T06:58:05;14.30;99.90
11991;DHT22;6055;52.522;13.446;2023-04-24T07:00:36;14.50;99.90
11991;DHT22;6055;52.522;13.446;2023-04-24T07:03:20;14.60;99.90
11991;DHT22;6055;52.522;13.446;2023-04-24T07:06:09;14.70;99.90
11991;DHT22;6055;52.522;13.446;2023-04-24T07:12:11;14.90;99.90
11991;DHT22;6055;52.522;13.446;2023-04-24T07:15:25;14.90;99.90
11991;DHT22;6055;52.522;13.446;2023-04-24T07:18:17;15.00;99.90
11991;DHT22;6055;52.522;13.446;2023-04-24T07:21:54;15.00;99.90
11991;DHT22;6055;52.522;13.446;2023-04-24T07:24:38;15.00;99.90
11991;DHT22;6055;52.522;13.446;2023-04-24T07:27:09;15.00;99.90
11991;DHT22;6055;52.522;13.446;2023-04-24T07:33:23;15.00;99.90
11991;DHT22;6055;52.522;13.446;2023-04-24T07:36:01;15.20;99.90
11991;DHT22;6055;52.522;13.446;2023-04-24T07:39:56;15.30;99.90
11991;DHT22;6055;52.522;13.446;2023-04-24T07:42:31;15.50;99.90
11991;DHT22;6055;52.522;13.446;2023-04-24T07:45:26;15.30;99.90
11991;DHT22;6055;52.522;13.446;2023-04-24T07:48:25;15.20;99.90
11991;DHT22;6055;52.522;13.446;2023-04-24T07:50:56;15.30;99.90
11991;DHT22;6055;52.522;13.446;2023-04-24T07:53:38;15.30;99.90
11991;DHT22;6055;52.522;13.446;2023-04-24T07:56:04;15.30;99.90
11991;DHT22;6055;52.522;13.446;2023-04-24T07:58:30;15.40;99.90
11991;DHT22;6055;52.522;13.446;2023-04-24T08:00:55;15.40;99.90
11991;DHT22;6055;52.522;13.446;2023-04-24T08:03:20;15.40;99.90
11991;DHT22;6055;52.522;13.446;2023-04-24T08:05:46;15.50;99.90
11991;DHT22;6055;52.522;13.446;2023-04-24T08:08:12;15.60;99.90
11991;DHT22;6055;52.522;13.446;2023-04-24T08:10:37;15.70;99.90
11991;DHT22;6055;52.522;13.446;2023-04-24T08:13:03;15.70;99.90
11991;DHT22;6055;52.522;13.446;2023-04-24T08:15:28;15.70;99.90
11991;DHT22;6055;52.522;13.446;2023-04-24T08:17:54;15.70;99.90
11991;DHT22;6055;52.522;13.446;2023-04-24T08:20:19;15.80;99.90
11991;DHT22;6055;52.522;13.446;2023-04-24T08:22:45;15.90;99.90
11991;DHT22;6055;52.522;13.446;2023-04-24T08:25:12;16.00;99.90
11991;DHT22;6055;52.522;13.446;2023-04-24T08:27:38;16.20;99.90
11991;DHT22;6055;52.522;13.446;2023-04-24T08:30:04;16.20;99.40
11991;DHT22;6055;52.522;13.446;2023-04-24T08:32:30;16.40;99.30
11991;DHT22;6055;52.522;13.446;2023-04-24T08:34:59;16.60;99.30
11991;DHT22;6055;52.522;13.446;2023-04-24T08:37:26;16.90;98.50
11991;DHT22;6055;52.522;13.446;2023-04-24T08:39:52;17.20;97.80
11991;DHT22;6055;52.522;13.446;2023-04-24T08:42:18;17.40;97.20
11991;DHT22;6055;52.522;13.446;2023-04-24T08:44:44;17.50;97.40
11991;DHT22;6055;52.522;13.446;2023-04-24T08:47:10;17.60;97.00
11991;DHT22;6055;52.522;13.446;2023-04-24T08:49:36;17.50;97.30
11991;DHT22;6055;52.522;13.446;2023-04-24T08:52:02;17.30;97.50
11991;DHT22;6055;52.522;13.446;2023-04-24T08:54:29;17.30;97.50
11991;DHT22;6055;52.522;13.446;2023-04-24T08:56:59;17.40;97.60
11991;DHT22;6055;52.522;13.446;2023-04-24T08:59:28;17.40;98.10
11991;DHT22;6055;52.522;13.446;2023-04-24T09:01:55;17.70;98.10
11991;DHT22;6055;52.522;13.446;2023-04-24T09:04:22;18.10;97.60
11991;DHT22;6055;52.522;13.446;2023-04-24T09:06:50;18.10;96.30
11991;DHT22;6055;52.522;13.446;2023-04-24T09:09:16;18.20;96.20
11991;DHT22;6055;52.522;13.446;2023-04-24T09:11:43;18.10;95.90
11991;DHT22;6055;52.522;13.446;2023-04-24T09:14:09;18.00;95.50
11991;DHT22;6055;52.522;13.446;2023-04-24T09:16:37;18.00;95.90
11991;DHT22;6055;52.522;13.446;2023-04-24T09:19:03;17.90;95.90
11991;DHT22;6055;52.522;13.446;2023-04-24T09:21:33;17.80;96.10
11991;DHT22;6055;52.522;13.446;2023-04-24T09:24:15;17.70;96.50
11991;DHT22;6055;52.522;13.446;2023-04-24T09:26:43;17.70;97.30
11991;DHT22;6055;52.522;13.446;2023-04-24T09:29:17;17.50;97.70
11991;DHT22;6055;52.522;13.446;2023-04-24T09:31:43;17.40;98.10
11991;DHT22;6055;52.522;13.446;2023-04-24T09:34:09;17.30;98.10
11991;DHT22;6055;52.522;13.446;2023-04-24T09:36:36;17.20;98.30
11991;DHT22;6055;52.522;13.446;2023-04-24T09:39:07;17.40;97.90
11991;DHT22;6055;52.522;13.446;2023-04-24T09:44:21;17.50;98.20
11991;DHT22;6055;52.522;13.446;2023-04-24T09:46:51;17.70;97.80
11991;DHT22;6055;52.522;13.446;2023-04-24T09:49:26;17.70;97.70
11991;DHT22;6055;52.522;13.446;2023-04-24T09:51:52;17.80;97.80
11991;DHT22;6055;52.522;13.446;2023-04-24T09:54:27;17.70;98.10
11991;DHT22;6055;52.522;13.446;2023-04-24T09:56:52;17.70;98.10
11991;DHT22;6055;52.522;13.446;2023-04-24T09:59:19;17.80;98.50
11991;DHT22;6055;52.522;13.446;2023-04-24T10:01:46;17.70;98.00
11991;DHT22;6055;52.522;13.446;2023-04-24T10:04:22;17.90;98.60
11991;DHT22;6055;52.522;13.446;2023-04-24T10:06:49;18.00;97.40
11991;DHT22;6055;52.522;13.446;2023-04-24T10:09:16;18.30;96.80
11991;DHT22;6055;52.522;13.446;2023-04-24T10:11:43;18.10;96.90
11991;DHT22;6055;52.522;13.446;2023-04-24T10:14:16;18.30;96.80
11991;DHT22;6055;52.522;13.446;2023-04-24T10:16:42;18.40;97.10
11991;DHT22;6055;52.522;13.446;2023-04-24T10:19:08;18.60;95.60
11991;DHT22;6055;52.522;13.446;2023-04-24T10:21:34;18.70;96.20
11991;DHT22;6055;52.522;13.446;2023-04-24T10:24:00;18.90;95.80
11991;DHT22;6055;52.522;13.446;2023-04-24T10:26:28;19.20;95.70
11991;DHT22;6055;52.522;13.446;2023-04-24T10:28:57;19.30;96.00
11991;DHT22;6055;52.522;13.446;2023-04-24T10:31:25;19.30;95.80
11991;DHT22;6055;52.522;13.446;2023-04-24T10:33:52;19.20;96.00
11991;DHT22;6055;52.522;13.446;2023-04-24T10:36:25;19.50;95.60
11991;DHT22;6055;52.522;13.446;2023-04-24T10:38:56;19.40;95.60
11991;DHT22;6055;52.522;13.446;2023-04-24T10:41:25;18.90;95.90
11991;DHT22;6055;52.522;13.446;2023-04-24T10:44:05;18.70;96.30
11991;DHT22;6055;52.522;13.446;2023-04-24T10:46:35;18.40;96.80
11991;DHT22;6055;52.522;13.446;2023-04-24T10:49:04;18.10;97.50
11991;DHT22;6055;52.522;13.446;2023-04-24T10:54:53;17.60;98.30
11991;DHT22;6055;52.522;13.446;2023-04-24T10:57:42;17.50;98.00
11991;DHT22;6055;52.522;13.446;2023-04-24T11:00:25;17.50;97.90
11991;DHT22;6055;52.522;13.446;2023-04-24T11:02:53;17.40;97.90
11991;DHT22;6055;52.522;13.446;2023-04-24T11:05:20;17.50;98.10
11991;DHT22;6055;52.522;13.446;2023-04-24T11:08:11;17.50;98.90
11991;DHT22;6055;52.522;13.446;2023-04-24T11:10:45;17.70;99.30
11991;DHT22;6055;52.522;13.446;2023-04-24T11:13:14;17.80;99.00
11991;DHT22;6055;52.522;13.446;2023-04-24T11:15:41;18.20;97.40
11991;DHT22;6055;52.522;13.446;2023-04-24T11:18:13;18.80;96.20
11991;DHT22;6055;52.522;13.446;2023-04-24T11:20:42;19.80;95.20
11991;DHT22;6055;52.522;13.446;2023-04-24T11:23:08;20.50;93.90
11991;DHT22;6055;52.522;13.446;2023-04-24T11:25:35;20.60;93.50
11991;DHT22;6055;52.522;13.446;2023-04-24T11:28:05;20.40;93.60
11991;DHT22;6055;52.522;13.446;2023-04-24T11:30:31;20.00;94.20
11991;DHT22;6055;52.522;13.446;2023-04-24T11:33:02;19.80;94.40
11991;DHT22;6055;52.522;13.446;2023-04-24T11:35:29;19.40;94.50
11991;DHT22;6055;52.522;13.446;2023-04-24T11:37:55;19.00;95.00
11991;DHT22;6055;52.522;13.446;2023-04-24T11:40:22;18.50;95.80
11991;DHT22;6055;52.522;13.446;2023-04-24T11:42:50;18.10;96.10
11991;DHT22;6055;52.522;13.446;2023-04-24T11:45:21;17.90;97.30
11991;DHT22;6055;52.522;13.446;2023-04-24T11:59:55;19.80;99.40
11991;DHT22;6055;52.522;13.446;2023-04-24T12:02:34;21.00;98.30
11991;DHT22;6055;52.522;13.446;2023-04-24T12:05:20;21.80;95.60
11991;DHT22;6055;52.522;13.446;2023-04-24T12:07:49;22.90;93.90
11991;DHT22;6055;52.522;13.446;2023-04-24T12:13:13;23.10;93.20
11991;DHT22;6055;52.522;13.446;2023-04-24T12:15:42;22.60;93.50
11991;DHT22;6055;52.522;13.446;2023-04-24T12:18:14;22.70;93.10
11991;DHT22;6055;52.522;13.446;2023-04-24T12:23:59;22.60;93.30
11991;DHT22;6055;52.522;13.446;2023-04-24T12:26:27;23.40;92.50
11991;DHT22;6055;52.522;13.446;2023-04-24T12:35:29;24.30;90.20
11991;DHT22;6055;52.522;13.446;2023-04-24T12:38:13;22.90;90.10
11991;DHT22;6055;52.522;13.446;2023-04-24T12:47:10;22.20;89.70
11991;DHT22;6055;52.522;13.446;2023-04-24T12:49:43;21.20;88.90
11991;DHT22;6055;52.522;13.446;2023-04-24T12:52:08;20.70;88.50
11991;DHT22;6055;52.522;13.446;2023-04-24T12:54:41;20.40;87.40
11991;DHT22;6055;52.522;13.446;2023-04-24T12:57:15;20.20;86.40
11991;DHT22;6055;52.522;13.446;2023-04-24T13:00:21;19.90;85.70
11991;DHT22;6055;52.522;13.446;2023-04-24T13:03:24;20.00;85.90
11991;DHT22;6055;52.522;13.446;2023-04-24T13:05:59;19.90;84.10
11991;DHT22;6055;52.522;13.446;2023-04-24T13:15:00;20.50;83.10
11991;DHT22;6055;52.522;13.446;2023-04-24T13:17:26;20.40;82.20
11991;DHT22;6055;52.522;13.446;2023-04-24T13:19:54;20.10;82.40
11991;DHT22;6055;52.522;13.446;2023-04-24T13:22:52;20.20;81.20
11991;DHT22;6055;52.522;13.446;2023-04-24T13:35:48;22.30;75.00
11991;DHT22;6055;52.522;13.446;2023-04-24T13:38:16;22.20;73.10
11991;DHT22;6055;52.522;13.446;2023-04-24T13:40:44;21.60;74.60
11991;DHT22;6055;52.522;13.446;2023-04-24T13:43:18;21.10;75.10
11991;DHT22;6055;52.522;13.446;2023-04-24T13:45:44;20.80;76.30
11991;DHT22;6055;52.522;13.446;2023-04-24T13:48:12;20.90;72.00
11991;DHT22;6055;52.522;13.446;2023-04-24T13:50:43;21.00;71.80
11991;DHT22;6055;52.522;13.446;2023-04-24T13:53:09;20.60;73.00
11991;DHT22;6055;52.522;13.446;2023-04-24T13:55:35;20.60;74.30
11991;DHT22;6055;52.522;13.446;2023-04-24T13:58:02;20.80;74.00
11991;DHT22;6055;52.522;13.446;2023-04-24T14:00:28;20.90;73.90
11991;DHT22;6055;52.522;13.446;2023-04-24T14:02:53;20.70;73.40
11991;DHT22;6055;52.522;13.446;2023-04-24T14:05:19;20.90;72.70
11991;DHT22;6055;52.522;13.446;2023-04-24T14:18:05;19.70;74.80
11991;DHT22;6055;52.522;13.446;2023-04-24T14:20:31;19.70;75.30
11991;DHT22;6055;52.522;13.446;2023-04-24T14:23:07;20.00;74.00
11991;DHT22;6055;52.522;13.446;2023-04-24T14:26:11;19.90;73.80
11991;DHT22;6055;52.522;13.446;2023-04-24T14:32:03;19.40;75.60
11991;DHT22;6055;52.522;13.446;2023-04-24T14:34:31;19.10;76.20
11991;DHT22;6055;52.522;13.446;2023-04-24T14:36:56;18.90;75.20
11991;DHT22;6055;52.522;13.446;2023-04-24T14:39:24;19.00;76.70
11991;DHT22;6055;52.522;13.446;2023-04-24T14:41:49;19.60;75.80
11991;DHT22;6055;52.522;13.446;2023-04-24T14:44:15;20.00;73.80
11991;DHT22;6055;52.522;13.446;2023-04-24T14:46:43;20.00;72.60
11991;DHT22;6055;52.522;13.446;2023-04-24T14:49:16;19.20;71.70
11991;DHT22;6055;52.522;13.446;2023-04-24T14:51:44;18.90;72.70
11991;DHT22;6055;52.522;13.446;2023-04-24T14:57:42;18.80;76.00
11991;DHT22;6055;52.522;13.446;2023-04-24T15:00:08;18.70;75.80
11991;DHT22;6055;52.522;13.446;2023-04-24T15:02:35;18.70;77.60
11991;DHT22;6055;52.522;13.446;2023-04-24T15:05:05;18.70;77.90
11991;DHT22;6055;52.522;13.446;2023-04-24T15:07:31;18.60;77.40
11991;DHT22;6055;52.522;13.446;2023-04-24T15:09:57;18.60;77.50
11991;DHT22;6055;52.522;13.446;2023-04-24T15:12:22;18.60;77.60
11991;DHT22;6055;52.522;13.446;2023-04-24T15:14:48;18.50;77.20
11991;DHT22;6055;52.522;13.446;2023-04-24T15:17:13;18.40;78.20
11991;DHT22;6055;52.522;13.446;2023-04-24T15:19:38;18.40;77.90
11991;DHT22;6055;52.522;13.446;2023-04-24T15:22:04;18.30;79.20
11991;DHT22;6055;52.522;13.446;2023-04-24T15:24:29;18.20;79.80
11991;DHT22;6055;52.522;13.446;2023-04-24T15:26:55;18.20;79.50
11991;DHT22;6055;52.522;13.446;2023-04-24T15:29:21;17.90;79.50
11991;DHT22;6055;52.522;13.446;2023-04-24T15:31:48;18.00;80.30
11991;DHT22;6055;52.522;13.446;2023-04-24T15:34:14;18.10;79.50
11991;DHT22;6055;52.522;13.446;2023-04-24T15:36:39;18.40;77.40
11991;DHT22;6055;52.522;13.446;2023-04-24T15:39:05;18.20;75.90
11991;DHT22;6055;52.522;13.446;2023-04-24T15:41:30;17.90;76.40
11991;DHT22;6055;52.522;13.446;2023-04-24T15:43:57;17.70;77.30
11991;DHT22;6055;52.522;13.446;2023-04-24T15:46:22;17.40;78.80
11991;DHT22;6055;52.522;13.446;2023-04-24T15:48:48;17.30;80.00
11991;DHT22;6055;52.522;13.446;2023-04-24T15:51:14;17.20;79.80
11991;DHT22;6055;52.522;13.446;2023-04-24T15:53:40;17.20;81.20
11991;DHT22;6055;52.522;13.446;2023-04-24T15:56:14;17.20;80.50
11991;DHT22;6055;52.522;13.446;2023-04-24T15:59:01;17.20;80.50
11991;DHT22;6055;52.522;13.446;2023-04-24T16:01:35;17.30;80.10
11991;DHT22;6055;52.522;13.446;2023-04-24T16:04:01;17.10;80.30
11991;DHT22;6055;52.522;13.446;2023-04-24T16:06:32;17.10;80.30
11991;DHT22;6055;52.522;13.446;2023-04-24T16:09:00;17.00;80.80
11991;DHT22;6055;52.522;13.446;2023-04-24T16:11:26;16.90;81.60
11991;DHT22;6055;52.522;13.446;2023-04-24T16:13:54;16.90;81.60
11991;DHT22;6055;52.522;13.446;2023-04-24T16:17:02;16.80;81.30
11991;DHT22;6055;52.522;13.446;2023-04-24T16:19:46;16.70;82.20
11991;DHT22;6055;52.522;13.446;2023-04-24T16:22:23;16.60;82.30
11991;DHT22;6055;52.522;13.446;2023-04-24T16:24:48;16.60;82.70
11991;DHT22;6055;52.522;13.446;2023-04-24T16:27:14;16.70;83.50
11991;DHT22;6055;52.522;13.446;2023-04-24T16:29:40;16.70;83.40
11991;DHT22;6055;52.522;13.446;2023-04-24T16:32:05;16.70;82.80
11991;DHT22;6055;52.522;13.446;2023-04-24T16:34:30;16.70;83.20
11991;DHT22;6055;52.522;13.446;2023-04-24T16:36:56;16.50;83.70
11991;DHT22;6055;52.522;13.446;2023-04-24T16:39:22;16.50;83.80
11991;DHT22;6055;52.522;13.446;2023-04-24T16:41:47;16.50;84.20
11991;DHT22;6055;52.522;13.446;2023-04-24T16:44:13;16.50;83.30
11991;DHT22;6055;52.522;13.446;2023-04-24T16:46:39;16.40;83.60
11991;DHT22;6055;52.522;13.446;2023-04-24T16:49:04;16.30;84.50
11991;DHT22;6055;52.522;13.446;2023-04-24T16:51:30;16.30;85.80
11991;DHT22;6055;52.522;13.446;2023-04-24T16:53:57;16.30;87.40
11991;DHT22;6055;52.522;13.446;2023-04-24T16:56:22;16.20;88.80
11991;DHT22;6055;52.522;13.446;2023-04-24T16:58:48;15.90;89.60
11991;DHT22;6055;52.522;13.446;2023-04-24T17:01:14;15.60;90.40
11991;DHT22;6055;52.522;13.446;2023-04-24T17:03:39;15.30;90.90
11991;DHT22;6055;52.522;13.446;2023-04-24T17:06:05;15.20;91.20
11991;DHT22;6055;52.522;13.446;2023-04-24T17:08:31;15.00;91.70
11991;DHT22;6055;52.522;13.446;2023-04-24T17:10:57;14.80;92.10
11991;DHT22;6055;52.522;13.446;2023-04-24T17:13:22;14.70;92.50
11991;DHT22;6055;52.522;13.446;2023-04-24T17:15:48;14.60;93.20
11991;DHT22;6055;52.522;13.446;2023-04-24T17:28:53;14.40;95.80
11991;DHT22;6055;52.522;13.446;2023-04-24T17:31:32;14.30;96.50
11991;DHT22;6055;52.522;13.446;2023-04-24T17:34:09;14.30;97.10
11991;DHT22;6055;52.522;13.446;2023-04-24T17:43:15;14.00;96.40
11991;DHT22;6055;52.522;13.446;2023-04-24T17:48:57;14.00;96.60
11991;DHT22;6055;52.522;13.446;2023-04-24T17:51:26;13.70;96.90
11991;DHT22;6055;52.522;13.446;2023-04-24T17:54:05;13.60;97.10
11991;DHT22;6055;52.522;13.446;2023-04-24T17:56:36;13.40;97.70
11991;DHT22;6055;52.522;13.446;2023-04-24T17:59:57;13.40;97.80
11991;DHT22;6055;52.522;13.446;2023-04-24T18:06:20;13.30;98.00
11991;DHT22;6055;52.522;13.446;2023-04-24T18:13:33;13.20;98.40
11991;DHT22;6055;52.522;13.446;2023-04-24T18:37:52;12.80;99.10
11991;DHT22;6055;52.522;13.446;2023-04-24T18:40:18;12.60;99.10
11991;DHT22;6055;52.522;13.446;2023-04-24T18:42:44;12.60;99.50
11991;DHT22;6055;52.522;13.446;2023-04-24T18:45:33;12.50;99.20
11991;DHT22;6055;52.522;13.446;2023-04-24T18:47:59;12.50;99.50
11991;DHT22;6055;52.522;13.446;2023-04-24T18:50:41;12.50;99.50
11991;DHT22;6055;52.522;13.446;2023-04-24T18:53:09;12.50;99.40
11991;DHT22;6055;52.522;13.446;2023-04-24T18:55:39;12.40;99.50
11991;DHT22;6055;52.522;13.446;2023-04-24T18:58:27;12.40;99.50
11991;DHT22;6055;52.522;13.446;2023-04-24T19:01:16;12.30;99.20
11991;DHT22;6055;52.522;13.446;2023-04-24T19:03:48;12.20;98.60
11991;DHT22;6055;52.522;13.446;2023-04-24T19:06:19;12.00;98.70
11991;DHT22;6055;52.522;13.446;2023-04-24T19:08:59;11.90;98.60
11991;DHT22;6055;52.522;13.446;2023-04-24T19:12:00;11.80;98.80
11991;DHT22;6055;52.522;13.446;2023-04-24T19:15:08;11.70;99.00
11991;DHT22;6055;52.522;13.446;2023-04-24T19:18:26;11.70;99.10
11991;DHT22;6055;52.522;13.446;2023-04-24T19:21:11;11.60;99.60
11991;DHT22;6055;52.522;13.446;2023-04-24T19:23:40;11.60;99.90
11991;DHT22;6055;52.522;13.446;2023-04-24T19:26:32;11.60;99.90
11991;DHT22;6055;52.522;13.446;2023-04-24T19:32:21;11.40;99.90
11991;DHT22;6055;52.522;13.446;2023-04-24T19:34:49;11.40;99.90
11991;DHT22;6055;52.522;13.446;2023-04-24T19:37:34;11.40;99.90
11991;DHT22;6055;52.522;13.446;2023-04-24T19:40:25;11.40;99.90
11991;DHT22;6055;52.522;13.446;2023-04-24T19:43:15;11.40;99.90
11991;DHT22;6055;52.522;13.446;2023-04-24T19:45:51;11.40;99.90
11991;DHT22;6055;52.522;13.446;2023-04-24T19:48:17;11.30;99.90
11991;DHT22;6055;52.522;13.446;2023-04-24T19:50:48;11.30;99.90
11991;DHT22;6055;52.522;13.446;2023-04-24T19:53:19;11.30;99.90
11991;DHT22;6055;52.522;13.446;2023-04-24T19:55:53;11.50;99.90
11991;DHT22;6055;52.522;13.446;2023-04-24T19:58:19;11.30;99.90
11991;DHT22;6055;52.522;13.446;2023-04-24T20:00:48;11.30;99.90
11991;DHT22;6055;52.522;13.446;2023-04-24T20:06:27;11.30;99.90
11991;DHT22;6055;52.522;13.446;2023-04-24T20:09:22;11.20;99.90
11991;DHT22;6055;52.522;13.446;2023-04-24T20:12:18;11.20;99.90
11991;DHT22;6055;52.522;13.446;2023-04-24T20:15:13;11.10;99.90
11991;DHT22;6055;52.522;13.446;2023-04-24T20:21:40;11.10;99.90
11991;DHT22;6055;52.522;13.446;2023-04-24T20:28:26;11.00;99.90
11991;DHT22;6055;52.522;13.446;2023-04-24T20:32:06;11.00;99.90
11991;DHT22;6055;52.522;13.446;2023-04-24T20:35:42;11.00;99.90
11991;DHT22;6055;52.522;13.446;2023-04-24T20:56:10;10.80;99.90
11991;DHT22;6055;52.522;13.446;2023-04-24T20:58:52;10.80;99.90
11991;DHT22;6055;52.522;13.446;2023-04-24T21:01:39;10.70;99.90
11991;DHT22;6055;52.522;13.446;2023-04-24T21:08:42;10.60;99.90
11991;DHT22;6055;52.522;13.446;2023-04-24T21:14:50;10.70;99.90
11991;DHT22;6055;52.522;13.446;2023-04-24T21:17:39;10.60;99.90
11991;DHT22;6055;52.522;13.446;2023-04-24T21:20:38;10.70;99.90
11991;DHT22;6055;52.522;13.446;2023-04-24T21:23:06;10.60;99.90
11991;DHT22;6055;52.522;13.446;2023-04-24T21:25:46;10.60;99.90
11991;DHT22;6055;52.522;13.446;2023-04-24T21:28:15;10.60;99.90
11991;DHT22;6055;52.522;13.446;2023-04-24T21:34:35;10.50;99.90
11991;DHT22;6055;52.522;13.446;2023-04-24T21:37:28;10.50;99.90
11991;DHT22;6055;52.522;13.446;2023-04-24T21:43:31;10.50;99.90
11991;DHT22;6055;52.522;13.446;2023-04-24T21:46:02;10.50;99.90
11991;DHT22;6055;52.522;13.446;2023-04-24T21:52:11;10.50;99.90
11991;DHT22;6055;52.522;13.446;2023-04-24T21:54:37;10.50;99.90
11991;DHT22;6055;52.522;13.446;2023-04-24T21:57:02;10.50;99.90
11991;DHT22;6055;52.522;13.446;2023-04-24T21:59:28;10.60;99.90
11991;DHT22;6055;52.522;13.446;2023-04-24T22:01:54;10.60;99.90
11991;DHT22;6055;52.522;13.446;2023-04-24T22:04:20;10.60;99.90
11991;DHT22;6055;52.522;13.446;2023-04-24T22:06:45;10.50;99.90
11991;DHT22;6055;52.522;13.446;2023-04-24T22:09:10;10.40;99.90
11991;DHT22;6055;52.522;13.446;2023-04-24T22:11:36;10.40;99.90
11991;DHT22;6055;52.522;13.446;2023-04-24T22:14:02;10.40;99.90
11991;DHT22;6055;52.522;13.446;2023-04-24T22:16:28;10.40;99.90
11991;DHT22;6055;52.522;13.446;2023-04-24T22:18:54;10.40;99.90
11991;DHT22;6055;52.522;13.446;2023-04-24T22:21:20;10.30;99.90
11991;DHT22;6055;52.522;13.446;2023-04-24T22:23:46;10.30;99.90
11991;DHT22;6055;52.522;13.446;2023-04-24T22:26:12;10.30;99.90
11991;DHT22;6055;52.522;13.446;2023-04-24T22:28:38;10.20;99.90
11991;DHT22;6055;52.522;13.446;2023-04-24T22:31:03;10.20;99.90
11991;DHT22;6055;52.522;13.446;2023-04-24T22:33:29;10.10;99.90
11991;DHT22;6055;52.522;13.446;2023-04-24T22:35:54;10.10;99.90
11991;DHT22;6055;52.522;13.446;2023-04-24T22:38:20;10.10;99.90
11991;DHT22;6055;52.522;13.446;2023-04-24T22:40:45;10.10;99.90
11991;DHT22;6055;52.522;13.446;2023-04-24T22:43:11;10.00;99.90
11991;DHT22;6055;52.522;13.446;2023-04-24T22:45:37;10.10;99.90
11991;DHT22;6055;52.522;13.446;2023-04-24T22:48:03;10.10;99.90
11991;DHT22;6055;52.522;13.446;2023-04-24T22:50:28;10.00;99.90
11991;DHT22;6055;52.522;13.446;2023-04-24T22:52:54;10.10;99.90
11991;DHT22;6055;52.522;13.446;2023-04-24T22:55:20;10.00;99.90
11991;DHT22;6055;52.522;13.446;2023-04-24T22:57:47;10.10;99.90
11991;DHT22;6055;52.522;13.446;2023-04-24T23:00:13;10.00;99.90
11991;DHT22;6055;52.522;13.446;2023-04-24T23:02:40;10.00;99.90
11991;DHT22;6055;52.522;13.446;2023-04-24T23:05:06;10.00;99.90
11991;DHT22;6055;52.522;13.446;2023-04-24T23:07:33;10.00;99.90
11991;DHT22;6055;52.522;13.446;2023-04-24T23:09:58;10.00;99.90
11991;DHT22;6055;52.522;13.446;2023-04-24T23:12:24;10.00;99.90
11991;DHT22;6055;52.522;13.446;2023-04-24T23:14:49;10.10;99.90
11991;DHT22;6055;52.522;13.446;2023-04-24T23:17:15;10.10;99.90
11991;DHT22;6055;52.522;13.446;2023-04-24T23:19:41;10.00;99.90
11991;DHT22;6055;52.522;13.446;2023-04-24T23:22:07;10.00;99.90
11991;DHT22;6055;52.522;13.446;2023-04-24T23:24:32;10.00;99.90
11991;DHT22;6055;52.522;13.446;2023-04-24T23:26:58;10.00;99.90